University Park, Florida
Current Conditions -  °F | °C
As of 9:53 PM on Friday 31 Oct 2014 (Local Time) from KSRQ Reporting Station
Clear Clear  
Wind Chill: 67°   Ceiling: Unl
Heat Index: 67°   Visibility: 10mi
Dew Point: 51°   Wind: 9mph
Humidity: 57%   Direction: 330°NNW
Pressure: 29.92"   Gusts: NA
Location:  27.3998°N, 82.4742°W
Report Text: KSRQ 010153Z AUTO 33008KT 10SM CLR 19/11 A2992 RMK AO2 SLP130 T01940106
Loading
Personal Weather Stations






























Interactive Weather Map
Tropical Storm Tracking
New forecast layout! Learn more

10-Day Weather Forecast

Advertisements
Track Severe Weather on mobile